createdAt,value
2019-02-21T22:20:30.518Z,15.40
2019-02-21T22:22:58.936Z,15.40
2019-02-21T22:25:27.317Z,15.40
2019-02-21T22:27:55.719Z,15.40
2019-02-21T22:30:24.052Z,15.40
2019-02-21T22:32:52.371Z,15.30
2019-02-21T22:35:20.743Z,15.20
2019-02-21T22:37:49.071Z,15.20
2019-02-21T22:40:20.107Z,15.20
2019-02-21T22:42:48.511Z,15.30
2019-02-21T22:45:16.924Z,15.30
2019-02-21T22:47:45.259Z,15.30
2019-02-21T22:52:23.087Z,15.30
2019-02-21T22:54:52.311Z,15.20
2019-02-21T22:57:21.551Z,15.20
2019-02-21T22:59:50.771Z,15.10
2019-02-21T23:02:26.607Z,15.00
2019-02-21T23:04:59.216Z,14.90
2019-02-21T23:07:31.687Z,14.80
2019-02-21T23:10:00.984Z,14.80
2019-02-21T23:12:31.861Z,14.70
2019-02-21T23:15:01.071Z,14.70
2019-02-21T23:17:30.467Z,14.60
2019-02-21T23:19:59.693Z,14.60
2019-02-21T23:22:28.912Z,14.60
2019-02-21T23:24:58.195Z,14.60
2019-02-21T23:27:28.987Z,14.60
2019-02-21T23:29:58.335Z,14.50
2019-02-21T23:32:27.583Z,14.50
2019-02-21T23:34:57.713Z,14.50
2019-02-21T23:37:26.924Z,14.40
2019-02-21T23:39:57.652Z,14.40
2019-02-21T23:42:26.865Z,14.40
2019-02-21T23:44:56.068Z,14.30
2019-02-21T23:47:25.308Z,14.40
2019-02-21T23:49:54.612Z,14.30
2019-02-21T23:52:23.903Z,14.30
2019-02-21T23:54:53.138Z,14.20
2019-02-21T23:57:22.404Z,14.20
2019-02-21T23:59:52.420Z,14.20
